Time;durP1;ratioP1;P1;durP2;ratioP2;P2;SDS_P1;SDS_P2;PMS_P1;PMS_P2;Temp;Humidity;BMP_temperature;BMP_pressure;BME280_temperature;BME280_humidity;BME280_pressure;Samples;Min_cycle;Max_cycle;Signal;HPM_P1;HPM_P2
2021/12/16 00:02:04;;;;;;;14.50;7.90;;;;;;;25.01;31.39;101282.56;1874025;76;22129;-33
2021/12/16 00:07:56;;;;;;;14.65;8.45;;;;;;;24.98;31.42;101281.11;1874042;76;22120;-33
2021/12/16 00:10:50;;;;;;;14.05;8.00;;;;;;;24.95;31.45;101274.24;1892795;76;22128;-33
2021/12/16 00:31:46;;;;;;;12.85;7.08;;;;;;;24.87;31.53;101286.73;1874031;76;22121;-33
2021/12/16 00:34:27;;;;;;;11.25;6.80;;;;;;;24.85;31.54;101282.05;1874010;76;22121;-32
2021/12/16 00:37:18;;;;;;;13.70;8.03;;;;;;;24.84;31.56;101284.97;1858084;76;27974;-33
2021/12/16 00:39:50;;;;;;;11.55;7.08;;;;;;;24.87;31.52;101283.19;1892827;76;22514;-33
2021/12/16 00:42:50;;;;;;;11.80;7.10;;;;;;;24.89;31.48;101280.56;1892802;76;22141;-33
2021/12/16 00:57:05;;;;;;;10.75;6.28;;;;;;;24.83;31.56;101288.74;1874008;76;22097;-33
2021/12/16 00:59:35;;;;;;;10.43;6.53;;;;;;;24.81;31.58;101279.99;1874028;76;22526;-33
2021/12/16 01:02:41;;;;;;;10.23;6.47;;;;;;;24.79;31.61;101277.47;1873995;76;22105;-33
2021/12/16 01:35:19;;;;;;;12.70;7.92;;;;;;;24.96;31.57;101263.67;1874031;76;22124;-32
2021/12/16 01:41:42;;;;;;;14.47;8.83;;;;;;;25.09;31.41;101264.66;1874040;76;22121;-33
2021/12/16 01:49:56;;;;;;;15.00;9.45;;;;;;;25.17;31.23;101249.41;1873930;76;22120;-33
2021/12/16 01:55:33;;;;;;;17.00;10.45;;;;;;;25.24;31.33;101242.05;1873884;76;22128;-33
2021/12/16 01:58:19;;;;;;;16.32;9.78;;;;;;;25.26;31.30;101248.08;1874136;76;22132;-33
2021/12/16 02:01:19;;;;;;;16.80;9.63;;;;;;;25.29;31.29;101250.89;1892804;76;22132;-33
2021/12/16 02:04:01;;;;;;;17.32;9.90;;;;;;;25.32;31.27;101249.10;1892839;76;22146;-33
2021/12/16 02:07:08;;;;;;;15.00;9.60;;;;;;;25.35;31.24;101249.99;1874017;76;22097;-33
2021/12/16 02:09:40;;;;;;;16.00;9.33;;;;;;;25.37;31.22;101256.06;1874042;76;22116;-33
2021/12/16 02:35:42;;;;;;;15.75;9.73;;;;;;;25.62;30.98;101233.72;1874029;76;22105;-33
2021/12/16 02:38:31;;;;;;;14.58;9.40;;;;;;;25.65;30.98;101232.45;1892811;76;23013;-33
2021/12/16 02:41:02;;;;;;;15.28;9.50;;;;;;;25.66;30.97;101236.83;1874035;76;22120;-33
2021/12/16 02:49:15;;;;;;;16.52;9.75;;;;;;;25.70;30.93;101224.44;1892938;76;22128;-33
2021/12/16 02:52:07;;;;;;;13.68;8.25;;;;;;;25.71;30.92;101220.66;1874001;76;22578;-33
2021/12/16 02:54:38;;;;;;;13.83;8.68;;;;;;;25.72;30.92;101227.75;1892826;76;22116;-33
2021/12/16 02:57:31;;;;;;;15.93;8.78;;;;;;;25.68;30.92;101217.02;1873996;76;22137;-33
2021/12/16 03:00:06;;;;;;;16.15;9.50;;;;;;;25.68;31.04;101231.98;1874020;76;22150;-33
2021/12/16 03:02:38;;;;;;;13.32;8.40;;;;;;;25.71;30.93;101227.45;1874034;76;22097;-33
2021/12/16 03:05:11;;;;;;;15.03;8.80;;;;;;;25.72;30.92;101239.46;1874035;76;22133;-33
2021/12/16 03:08:03;;;;;;;13.72;8.70;;;;;;;25.70;30.73;101250.29;1892795;76;22096;-33
2021/12/16 03:13:48;;;;;;;12.50;8.05;;;;;;;25.72;30.70;101261.77;1874020;76;22136;-33
2021/12/16 03:22:06;;;;;;;13.43;7.90;;;;;;;25.78;30.89;101263.61;1874142;76;22124;-32
2021/12/16 03:28:19;;;;;;;13.18;8.30;;;;;;;25.79;30.88;101257.13;1874032;76;22117;-33
2021/12/16 03:30:57;;;;;;;11.73;7.80;;;;;;;25.78;31.22;101269.59;1874000;76;22097;-33
2021/12/16 03:33:42;;;;;;;14.05;8.43;;;;;;;25.81;30.89;101259.08;1874035;76;22101;-33
2021/12/16 03:36:26;;;;;;;14.23;8.50;;;;;;;25.81;30.88;101259.08;1874114;76;22174;-33
2021/12/16 03:38:47;;;;;;;13.25;7.70;;;;;;;25.82;30.87;101266.72;1874033;76;22553;-32
2021/12/16 03:41:19;;;;;;;13.58;8.10;;;;;;;25.83;30.88;101269.73;1892829;76;22149;-33
2021/12/16 03:43:51;;;;;;;13.68;8.30;;;;;;;25.84;30.89;101278.23;1874037;76;22142;-33
2021/12/16 03:46:47;;;;;;;12.35;7.92;;;;;;;25.84;30.89;101274.98;1873986;76;22585;-33
2021/12/16 03:49:23;;;;;;;13.50;8.45;;;;;;;25.86;30.87;101278.29;1874043;76;22117;-33
2021/12/16 03:52:06;;;;;;;12.60;8.23;;;;;;;25.85;30.88;101278.53;1892951;76;22124;-33
2021/12/16 03:54:41;;;;;;;14.23;8.18;;;;;;;25.86;30.87;101280.19;1892836;76;22141;-33
2021/12/16 03:57:13;;;;;;;14.10;7.80;;;;;;;25.87;30.87;101276.39;1873921;76;22181;-33
2021/12/16 03:59:45;;;;;;;13.28;8.38;;;;;;;25.86;30.87;101285.09;1874037;76;22129;-33
2021/12/16 04:02:57;;;;;;;13.68;8.18;;;;;;;25.88;30.86;101278.08;1892810;76;22564;-33
2021/12/16 04:05:29;;;;;;;14.25;8.60;;;;;;;25.87;30.87;101285.39;1892826;76;22120;-33
2021/12/16 04:08:20;;;;;;;13.58;8.65;;;;;;;25.84;30.80;101283.14;1892798;76;22572;-33
2021/12/16 04:11:03;;;;;;;13.45;8.20;;;;;;;25.87;30.85;101281.31;1892830;76;22096;-33
2021/12/16 04:13:59;;;;;;;14.43;8.40;;;;;;;25.89;30.84;101279.74;1874014;76;22105;-33
2021/12/16 04:16:37;;;;;;;13.48;8.00;;;;;;;25.88;30.84;101283.00;1874043;76;22096;-33
2021/12/16 04:19:31;;;;;;;13.45;8.50;;;;;;;25.89;30.86;101293.35;1892907;76;22096;-33
2021/12/16 04:22:18;;;;;;;14.25;8.65;;;;;;;25.86;30.95;101287.81;1892812;76;22096;-33
2021/12/16 04:24:49;;;;;;;14.20;8.40;;;;;;;25.89;30.85;101283.30;1874178;76;20192;-33
2021/12/16 04:27:22;;;;;;;14.43;8.60;;;;;;;25.89;30.86;101286.02;1892823;76;22120;-33
2021/12/16 04:29:54;;;;;;;15.70;9.23;;;;;;;25.90;30.85;101290.39;1874020;76;22600;-33
2021/12/16 04:32:26;;;;;;;13.78;8.58;;;;;;;25.90;30.86;101289.03;1874017;76;22146;-33
2021/12/16 04:34:57;;;;;;;14.58;8.60;;;;;;;25.91;30.85;101292.05;1873912;76;22125;-33
2021/12/16 04:37:29;;;;;;;15.88;9.43;;;;;;;25.92;30.86;101289.62;1892814;76;22545;-33
2021/12/16 04:40:03;;;;;;;16.50;9.48;;;;;;;25.92;30.86;101282.82;1892807;76;22606;-33
2021/12/16 04:43:00;;;;;;;16.45;9.20;;;;;;;25.94;30.83;101291.61;1873988;76;22128;-33
2021/12/16 04:45:31;;;;;;;16.67;9.55;;;;;;;25.94;30.83;101292.97;1874024;76;22146;-33
2021/12/16 04:48:22;;;;;;;15.55;9.20;;;;;;;25.95;30.84;101293.80;1892779;76;22096;-33
2021/12/16 04:51:14;;;;;;;14.98;9.08;;;;;;;25.95;30.83;101290.55;1877327;75;22669;-33
2021/12/16 04:54:06;;;;;;;16.75;9.88;;;;;;;25.97;30.82;101288.95;1874025;76;22554;-33
2021/12/16 04:56:58;;;;;;;14.87;9.33;;;;;;;25.97;30.83;101291.17;1874016;76;22097;-33
2021/12/16 04:59:31;;;;;;;16.90;10.10;;;;;;;25.97;30.81;101291.17;1874015;76;22097;-33
2021/12/16 05:02:11;;;;;;;17.40;9.93;;;;;;;25.98;30.82;101300.16;1874134;76;22142;-33
2021/12/16 05:04:47;;;;;;;18.30;10.23;;;;;;;25.99;30.81;101296.38;1874010;76;22578;-33
2021/12/16 05:07:42;;;;;;;16.20;9.95;;;;;;;26.00;30.83;101292.59;1892685;76;22946;-33
2021/12/16 05:10:17;;;;;;;16.75;10.28;;;;;;;26.01;30.82;101284.72;1874038;76;22132;-33
2021/12/16 05:12:54;;;;;;;17.48;10.43;;;;;;;26.02;30.81;101278.73;1874032;76;22129;-33
2021/12/16 05:15:31;;;;;;;16.70;9.68;;;;;;;26.03;30.79;101278.53;1873909;76;22125;-33
2021/12/16 05:18:31;;;;;;;15.93;9.98;;;;;;;25.99;28.14;101270.52;1855753;76;28332;-33
2021/12/16 05:21:03;;;;;;;13.93;8.15;;;;;;;25.75;25.16;101270.85;1892739;76;22545;-33
2021/12/16 05:26:46;;;;;;;15.88;9.58;;;;;;;24.74;24.06;101264.54;1873926;76;22150;-33
2021/12/16 05:29:18;;;;;;;19.23;10.80;;;;;;;24.50;25.31;101262.60;1892620;76;22124;-33
2021/12/16 05:32:28;;;;;;;20.60;11.55;;;;;;;24.39;27.21;101260.58;1878389;76;22207;-34
2021/12/16 05:35:00;;;;;;;21.50;14.43;;;;;;;24.37;28.40;101261.30;1892776;76;22561;-34
2021/12/16 05:37:32;;;;;;;27.52;17.10;;;;;;;24.38;29.02;101256.20;1873956;76;22097;-33
2021/12/16 05:40:06;;;;;;;24.55;17.05;;;;;;;24.39;29.44;101250.55;1892738;76;22157;-33
2021/12/16 05:42:37;;;;;;;24.10;16.97;;;;;;;24.41;29.72;101251.68;1892745;76;22112;-32
2021/12/16 05:45:31;;;;;;;21.95;15.35;;;;;;;24.45;29.92;101255.11;1870714;76;22216;-32
2021/12/16 05:48:06;;;;;;;22.20;15.50;;;;;;;24.48;30.04;101254.68;1892149;76;22155;-33
2021/12/16 05:50:41;;;;;;;20.62;13.43;;;;;;;24.51;30.13;101254.75;1873595;76;22633;-32
2021/12/16 05:53:32;;;;;;;21.40;13.03;;;;;;;24.53;30.47;101262.18;1892237;76;22581;-33
2021/12/16 05:56:05;;;;;;;21.85;11.78;;;;;;;24.54;30.25;101256.22;1873317;76;22586;-32
2021/12/16 05:58:57;;;;;;;19.05;11.25;;;;;;;24.55;29.96;101252.44;1865153;76;22614;-34
2021/12/16 06:01:32;;;;;;;21.35;11.60;;;;;;;24.57;29.73;101249.00;1873141;76;22663;-33
2021/12/16 06:04:26;;;;;;;19.65;11.22;;;;;;;24.58;29.66;101246.06;1873333;76;22132;-35
2021/12/16 06:06:59;;;;;;;17.25;10.08;;;;;;;24.60;29.92;101249.91;1889770;76;22576;-36
2021/12/16 06:09:31;;;;;;;18.17;10.25;;;;;;;24.61;30.06;101256.50;1892381;76;22163;-34
2021/12/16 06:12:04;;;;;;;17.50;9.58;;;;;;;24.63;30.22;101257.63;1873527;76;22149;-35
2021/12/16 06:26:48;;;;;;;18.60;9.25;;;;;;;24.69;30.75;101273.87;1892022;76;22213;-34
2021/12/16 06:29:28;;;;;;;21.50;9.70;;;;;;;24.71;30.91;101276.39;1873551;76;22647;-35
2021/12/16 06:32:01;;;;;;;19.45;9.88;;;;;;;24.70;31.09;101274.20;1873593;76;22598;-35
2021/12/16 06:34:33;;;;;;;22.32;11.18;;;;;;;24.70;31.18;101274.70;1873564;76;22611;-35
2021/12/16 06:37:05;;;;;;;21.20;10.88;;;;;;;24.70;31.25;101271.98;1873513;76;22160;-35
2021/12/16 06:39:57;;;;;;;21.10;10.82;;;;;;;24.70;31.31;101278.78;1892501;76;22204;-34
2021/12/16 06:42:30;;;;;;;22.15;11.63;;;;;;;24.69;31.38;101282.55;1873731;76;22182;-36
2021/12/16 06:45:05;;;;;;;17.52;9.68;;;;;;;24.68;31.43;101281.73;1873288;76;22133;-33
2021/12/16 06:50:15;;;;;;;17.85;9.63;;;;;;;24.69;31.46;101279.84;1873391;76;22113;-35
2021/12/16 06:52:48;;;;;;;19.73;9.88;;;;;;;24.68;31.43;101281.73;1873201;76;22157;-34
2021/12/16 06:55:29;;;;;;;20.60;9.85;;;;;;;24.70;31.45;101281.50;1892079;76;22175;-34
2021/12/16 06:57:56;;;;;;;20.88;9.55;;;;;;;24.69;31.47;101277.13;1892102;76;22618;-34
2021/12/16 07:03:28;;;;;;;15.50;8.45;;;;;;;24.69;31.46;101287.46;1891810;76;22339;-34
2021/12/16 07:05:57;;;;;;;16.65;9.35;;;;;;;24.69;31.45;101283.39;1873371;76;22182;-34
2021/12/16 07:08:29;;;;;;;15.15;7.95;;;;;;;24.67;31.47;101277.87;1873420;76;22570;-34
2021/12/16 07:11:20;;;;;;;15.53;7.65;;;;;;;24.65;31.49;101277.25;1873596;76;22182;-34
2021/12/16 07:14:00;;;;;;;13.98;7.50;;;;;;;24.64;31.50;101276.95;1892490;76;22211;-34
2021/12/16 07:16:31;;;;;;;15.08;7.40;;;;;;;24.62;31.57;101288.57;1873068;76;22582;-33
2021/12/16 07:19:03;;;;;;;17.67;7.85;;;;;;;24.59;31.60;101284.92;1873224;76;22205;-34
2021/12/16 07:21:39;;;;;;;17.27;7.60;;;;;;;24.56;31.64;101288.92;1873447;76;22174;-34
2021/12/16 07:24:14;;;;;;;17.45;8.05;;;;;;;24.55;31.73;101286.40;1857313;76;28399;-36
2021/12/16 07:27:06;;;;;;;14.45;7.15;;;;;;;24.57;31.79;101285.14;1892001;76;22160;-35
2021/12/16 07:29:39;;;;;;;16.45;7.67;;;;;;;24.57;31.81;101287.03;1873441;76;22617;-33
2021/12/16 07:32:11;;;;;;;15.03;7.47;;;;;;;24.54;31.84;101288.81;1873087;76;22168;-36
2021/12/16 07:34:43;;;;;;;13.72;7.03;;;;;;;24.52;31.89;101289.57;1892279;76;22159;-34
2021/12/16 07:37:14;;;;;;;16.97;8.15;;;;;;;24.50;31.96;101288.94;1873262;76;22204;-33
2021/12/16 07:39:49;;;;;;;15.72;7.47;;;;;;;24.46;32.12;101294.78;1892150;76;22156;-32
2021/12/16 07:45:46;;;;;;;14.28;7.33;;;;;;;24.42;32.05;101308.52;1777191;77;21169;-35
2021/12/16 07:48:19;;;;;;;16.17;8.15;;;;;;;24.45;32.06;101299.92;1841193;76;22643;-36
2021/12/16 07:50:54;;;;;;;14.75;7.58;;;;;;;24.44;32.01;101292.83;1873585;76;22200;-34
2021/12/16 07:53:45;;;;;;;18.92;7.80;;;;;;;24.44;32.15;101291.47;1868561;76;22164;-34
2021/12/16 07:56:17;;;;;;;15.98;7.17;;;;;;;24.45;32.13;101284.98;1892124;76;22574;-33
2021/12/16 07:58:49;;;;;;;16.45;7.92;;;;;;;24.45;32.15;101278.72;1873458;76;22676;-34
2021/12/16 08:01:22;;;;;;;17.73;8.00;;;;;;;24.45;32.28;101274.12;1891563;76;22636;-37
2021/12/16 08:04:21;;;;;;;20.17;8.33;;;;;;;24.45;32.36;101268.69;1872925;76;22622;-34
2021/12/16 08:06:53;;;;;;;19.37;8.30;;;;;;;24.48;32.30;101264.19;1873067;76;22610;-36
2021/12/16 08:09:44;;;;;;;16.15;8.35;;;;;;;24.55;32.21;101261.95;1891850;76;22168;-36
2021/12/16 08:12:17;;;;;;;23.30;8.65;;;;;;;24.61;32.09;101260.57;1847833;76;22196;-35
2021/12/16 08:15:10;;;;;;;19.45;7.80;;;;;;;24.67;31.96;101254.78;1892097;76;22175;-34
2021/12/16 08:17:43;;;;;;;16.60;7.78;;;;;;;24.75;31.84;101257.25;1889510;76;22148;-34
2021/12/16 08:20:34;;;;;;;17.32;8.28;;;;;;;24.83;31.69;101245.27;1873344;76;22156;-35
2021/12/16 08:23:06;;;;;;;16.42;7.55;;;;;;;24.88;31.57;101236.75;1891893;76;22637;-34
2021/12/16 08:25:38;;;;;;;16.62;7.67;;;;;;;24.95;31.48;101233.47;1891855;76;22649;-37
2021/12/16 08:28:10;;;;;;;20.43;8.38;;;;;;;25.02;31.38;101228.50;1891819;76;22633;-34
2021/12/16 08:31:01;;;;;;;18.20;7.78;;;;;;;25.08;31.29;101223.55;1892167;76;22208;-34
2021/12/16 08:33:33;;;;;;;19.82;8.30;;;;;;;25.11;31.19;101220.41;1851091;76;22687;-35
2021/12/16 08:36:24;;;;;;;23.87;8.80;;;;;;;25.15;31.32;101217.55;1872636;76;22615;-36
2021/12/16 08:38:56;;;;;;;25.77;8.90;;;;;;;25.16;31.44;101213.77;1873260;76;22193;-34
2021/12/16 08:41:33;;;;;;;27.52;10.08;;;;;;;25.14;31.61;101214.00;1872946;76;22200;-36
2021/12/16 08:44:24;;;;;;;20.60;9.00;;;;;;;25.11;31.80;101208.17;1892114;76;22169;-34
2021/12/16 08:47:01;;;;;;;30.45;10.63;;;;;;;24.97;31.97;101193.30;1892237;76;22175;-35
2021/12/16 08:49:33;;;;;;;26.42;9.93;;;;;;;25.04;32.02;101195.14;1853171;76;22183;-32
2021/12/16 08:52:24;;;;;;;30.60;9.63;;;;;;;25.01;32.03;101196.41;1873250;76;22205;-35
2021/12/16 08:54:57;;;;;;;35.45;9.85;;;;;;;24.99;32.14;101185.77;1873237;76;22157;-33
2021/12/16 08:57:29;;;;;;;31.37;9.88;;;;;;;24.97;32.18;101182.42;1873156;76;22201;-34
2021/12/16 09:00:27;;;;;;;29.67;9.30;;;;;;;24.96;32.16;101176.69;1873374;76;22661;-34
2021/12/16 09:02:59;;;;;;;34.48;10.90;;;;;;;24.95;31.96;101175.03;1863907;76;22167;-33
2021/12/16 09:05:32;;;;;;;32.15;10.38;;;;;;;24.94;31.80;101172.02;1872555;76;22320;-35
2021/12/16 09:08:04;;;;;;;29.72;9.95;;;;;;;24.94;31.84;101172.55;1873458;76;22156;-34
2021/12/16 09:10:36;;;;;;;24.80;9.98;;;;;;;24.92;32.04;101171.39;1873240;76;22160;-34
2021/12/16 09:13:12;;;;;;;30.95;10.15;;;;;;;24.90;32.15;101166.72;1862998;76;22609;-33
2021/12/16 09:15:51;;;;;;;27.58;11.20;;;;;;;24.90;32.29;101164.00;1872494;76;28409;-36
2021/12/16 09:18:26;;;;;;;25.85;9.95;;;;;;;24.93;32.33;101152.66;1860036;76;22186;-34
2021/12/16 09:21:00;;;;;;;30.12;11.78;;;;;;;24.96;32.37;101156.30;1873330;76;22208;-35
2021/12/16 09:23:32;;;;;;;36.20;9.90;;;;;;;24.96;32.42;101155.47;1865300;76;22194;-35
2021/12/16 09:26:24;;;;;;;31.00;10.68;;;;;;;24.95;32.41;101155.17;1873087;76;22229;-36
2021/12/16 09:28:56;;;;;;;24.65;10.40;;;;;;;24.93;32.47;101150.47;1873410;76;22570;-36
2021/12/16 09:31:28;;;;;;;28.73;10.75;;;;;;;24.93;32.75;101151.30;1891840;76;22613;-34
2021/12/16 09:34:05;;;;;;;28.73;10.80;;;;;;;24.96;32.88;101152.22;1873086;76;22208;-35
2021/12/16 09:36:41;;;;;;;23.77;10.78;;;;;;;25.00;32.83;101153.97;1880764;76;22204;-33
2021/12/16 09:39:27;;;;;;;27.13;9.80;;;;;;;25.03;32.56;101146.75;1866862;76;23346;-33
2021/12/16 09:42:37;;;;;;;28.38;10.90;;;;;;;25.04;32.56;101147.57;1854729;76;22193;-33
2021/12/16 09:45:47;;;;;;;19.73;9.50;;;;;;;25.03;32.47;101139.95;1857156;76;22212;-33
2021/12/16 09:48:19;;;;;;;23.75;10.88;;;;;;;25.01;32.39;101149.37;1873017;76;22148;-33
2021/12/16 09:50:52;;;;;;;23.73;9.93;;;;;;;24.97;32.49;101134.85;1873318;76;22166;-36
2021/12/16 09:53:24;;;;;;;24.60;10.53;;;;;;;24.96;32.61;101132.37;1873215;76;22157;-36
2021/12/16 09:56:00;;;;;;;21.55;9.05;;;;;;;24.93;32.57;101133.62;1892221;76;22121;-32
2021/12/16 09:58:35;;;;;;;21.73;10.38;;;;;;;24.91;32.54;101133.56;1873359;76;22173;-35
2021/12/16 10:01:26;;;;;;;26.80;10.23;;;;;;;24.87;32.46;101123.66;1873340;76;22121;-35
2021/12/16 10:04:06;;;;;;;21.90;10.93;;;;;;;24.85;32.68;101121.71;1872528;76;22166;-36
2021/12/16 10:06:38;;;;;;;25.30;10.93;;;;;;;24.86;32.54;101117.93;1873356;76;22212;-35
2021/12/16 10:09:10;;;;;;;22.17;9.85;;;;;;;24.88;32.44;101113.09;1873485;76;22105;-36
2021/12/16 10:11:45;;;;;;;22.35;9.38;;;;;;;24.91;32.34;101118.63;1873293;76;22184;-36
2021/12/16 10:14:31;;;;;;;20.43;9.38;;;;;;;24.94;32.21;101105.95;1892489;76;22173;-36
2021/12/16 10:19:38;;;;;;;20.90;9.35;;;;;;;25.03;31.95;101105.11;1873801;76;22153;-36
2021/12/16 10:22:32;;;;;;;23.70;9.45;;;;;;;25.06;31.81;101106.86;1873949;76;22145;-33
2021/12/16 10:25:24;;;;;;;20.97;8.98;;;;;;;25.10;31.65;101109.47;1892126;76;22171;-35
2021/12/16 10:28:08;;;;;;;19.15;9.60;;;;;;;25.14;31.52;101101.70;1873575;76;22617;-34
2021/12/16 10:30:45;;;;;;;19.25;8.83;;;;;;;25.16;31.45;101086.80;1870591;76;22120;-35
2021/12/16 10:33:43;;;;;;;18.40;8.73;;;;;;;25.18;31.33;101086.59;1892251;76;22150;-35
2021/12/16 10:36:41;;;;;;;18.32;9.05;;;;;;;25.20;31.22;101086.66;1873624;76;22125;-34
2021/12/16 10:39:32;;;;;;;18.67;7.87;;;;;;;25.21;31.16;101084.77;1892426;76;22200;-34
2021/12/16 10:42:23;;;;;;;19.07;7.53;;;;;;;25.22;31.11;101084.56;1873695;76;22208;-33
2021/12/16 10:44:54;;;;;;;17.40;8.03;;;;;;;25.22;31.05;101079.12;1873932;76;22113;-35
2021/12/16 10:48:07;;;;;;;15.05;7.47;;;;;;;25.23;30.98;101080.78;1873799;76;22182;-34
2021/12/16 10:51:08;;;;;;;18.05;7.35;;;;;;;25.24;30.94;101081.61;1867715;76;22671;-35
2021/12/16 10:54:07;;;;;;;15.80;6.90;;;;;;;25.24;30.88;101076.16;1860047;76;22171;-35
2021/12/16 10:56:54;;;;;;;18.00;7.65;;;;;;;25.22;30.83;101075.05;1892515;76;22195;-36
2021/12/16 10:59:48;;;;;;;18.05;7.55;;;;;;;25.22;30.83;101068.25;1873299;76;22170;-33
2021/12/16 11:02:33;;;;;;;14.58;6.75;;;;;;;25.23;30.77;101063.64;1873268;76;22661;-36
2021/12/16 11:05:23;;;;;;;10.98;6.03;;;;;;;25.23;30.75;101063.64;1869850;76;22172;-36
2021/12/16 11:08:14;;;;;;;14.98;6.37;;;;;;;25.22;30.75;101062.81;1873072;76;22196;-32
2021/12/16 11:10:47;;;;;;;19.05;8.53;;;;;;;25.23;30.82;101061.75;1877304;76;22648;-33
2021/12/16 11:13:38;;;;;;;18.35;8.40;;;;;;;25.20;31.08;101047.23;1873220;76;22178;-34
2021/12/16 11:16:10;;;;;;;23.12;8.45;;;;;;;25.17;31.18;101051.78;1891356;76;22175;-34
2021/12/16 11:18:42;;;;;;;19.23;8.88;;;;;;;25.13;31.26;101042.95;1873258;76;22181;-33
2021/12/16 11:21:40;;;;;;;18.80;8.35;;;;;;;25.08;31.43;101038.69;1873250;76;22172;-34
2021/12/16 11:24:24;;;;;;;18.35;8.43;;;;;;;25.04;31.47;101037.48;1872936;76;22196;-35
2021/12/16 11:27:33;;;;;;;16.02;7.28;;;;;;;24.99;31.62;101040.87;1873067;76;22501;-34
2021/12/16 11:30:38;;;;;;;21.20;8.58;;;;;;;24.96;31.69;101035.88;1892043;76;22160;-36
2021/12/16 11:33:29;;;;;;;19.48;8.68;;;;;;;24.94;31.73;101028.49;1873069;76;22229;-34
2021/12/16 11:36:23;;;;;;;18.70;8.43;;;;;;;24.93;31.80;101021.37;1873435;76;22621;-35
2021/12/16 11:39:06;;;;;;;15.00;7.10;;;;;;;24.91;31.85;101016.70;1873320;76;22141;-34
2021/12/16 11:41:50;;;;;;;19.98;7.65;;;;;;;24.90;31.92;101010.97;1873476;76;22606;-33
2021/12/16 11:44:34;;;;;;;15.80;7.58;;;;;;;24.89;32.08;101013.36;1873317;76;22184;-34
2021/12/16 11:47:20;;;;;;;19.65;7.90;;;;;;;24.89;32.17;101016.08;1872821;76;22148;-34
2021/12/16 11:50:03;;;;;;;19.15;9.18;;;;;;;24.91;32.24;101016.70;1853077;76;27981;-34
2021/12/16 11:52:53;;;;;;;18.52;8.00;;;;;;;25.01;32.28;101014.81;1873327;76;22625;-33
2021/12/16 11:55:25;;;;;;;17.35;7.75;;;;;;;25.08;32.26;101007.43;1892065;76;22203;-35
2021/12/16 11:58:01;;;;;;;16.57;7.03;;;;;;;25.12;32.42;101008.64;1856064;76;22203;-35
2021/12/16 12:00:50;;;;;;;18.60;7.47;;;;;;;25.18;32.48;101003.67;1872938;76;22184;-34
2021/12/16 12:03:22;;;;;;;17.00;6.67;;;;;;;25.20;32.41;101005.62;1892034;76;22128;-32
2021/12/16 12:06:23;;;;;;;16.27;7.97;;;;;;;25.21;32.13;100993.14;1873331;76;22204;-33
2021/12/16 12:08:58;;;;;;;16.25;7.20;;;;;;;25.19;31.99;100994.45;1892058;76;22140;-35
2021/12/16 12:11:34;;;;;;;20.97;10.08;;;;;;;25.13;32.14;100991.30;1857332;76;28366;-35
